Time;durP1;ratioP1;P1;durP2;ratioP2;P2;SDS_P1;SDS_P2;PMS_P1;PMS_P2;Temp;Humidity;BMP_temperature;BMP_pressure;BME280_temperature;BME280_humidity;BME280_pressure;Samples;Min_cycle;Max_cycle;Signal;HPM_P1;HPM_P2
2022/03/19 00:01:47;;;;;;;3.05;1.50;;;21.40;43.40;;;;;;5148858;27;44676;-63
2022/03/19 00:04:15;;;;;;;3.03;1.73;;;21.40;43.40;;;;;;5148382;27;43547;-62
2022/03/19 00:06:46;;;;;;;3.03;1.50;;;21.40;43.40;;;;;;5148773;27;43467;-63
2022/03/19 00:09:14;;;;;;;2.42;1.40;;;21.40;43.40;;;;;;5126490;27;43537;-62
2022/03/19 00:11:42;;;;;;;1.98;1.25;;;21.40;43.40;;;;;;5148629;27;44708;-63
2022/03/19 00:14:12;;;;;;;2.05;1.33;;;21.40;43.40;;;;;;5148040;27;43362;-63
2022/03/19 00:16:39;;;;;;;2.97;1.70;;;21.40;44.00;;;;;;5148492;27;43463;-63
2022/03/19 00:19:08;;;;;;;3.50;1.60;;;21.30;43.40;;;;;;5151508;27;43610;-62
2022/03/19 00:21:37;;;;;;;3.33;1.50;;;21.30;43.30;;;;;;5133597;27;43997;-62
2022/03/19 00:24:06;;;;;;;1.65;1.25;;;21.30;43.40;;;;;;5128119;27;43556;-62
2022/03/19 00:26:34;;;;;;;2.30;1.38;;;21.30;43.40;;;;;;5148136;27;43426;-62
2022/03/19 00:29:01;;;;;;;1.70;1.10;;;21.30;43.40;;;;;;5129908;27;43438;-63
2022/03/19 00:31:29;;;;;;;2.83;1.40;;;21.20;43.40;;;;;;5148228;27;43809;-63
2022/03/19 00:33:57;;;;;;;3.85;1.30;;;21.20;43.40;;;;;;5148034;27;44309;-63
2022/03/19 00:36:24;;;;;;;1.92;1.15;;;21.20;43.40;;;;;;5147980;27;43389;-63
2022/03/19 00:38:52;;;;;;;2.65;1.45;;;21.20;43.40;;;;;;5112024;27;43853;-63
2022/03/19 00:41:20;;;;;;;2.28;1.40;;;21.20;43.40;;;;;;5147748;27;44691;-63
2022/03/19 00:43:47;;;;;;;2.45;1.27;;;21.20;43.40;;;;;;5133420;27;43347;-63
2022/03/19 00:46:15;;;;;;;2.47;1.17;;;21.20;43.40;;;;;;5148154;27;43443;-63
2022/03/19 00:48:43;;;;;;;2.20;1.48;;;21.20;43.40;;;;;;5148337;27;43645;-62
2022/03/19 00:51:10;;;;;;;2.25;1.40;;;21.10;43.40;;;;;;5147924;27;43559;-63
2022/03/19 00:53:38;;;;;;;3.92;1.50;;;21.10;43.40;;;;;;5147559;27;43705;-63
2022/03/19 00:56:05;;;;;;;2.25;1.38;;;21.10;43.40;;;;;;5147848;27;43458;-62
2022/03/19 00:58:34;;;;;;;1.85;1.20;;;21.10;43.40;;;;;;5147455;27;43458;-62
2022/03/19 01:01:01;;;;;;;2.92;1.40;;;21.10;43.40;;;;;;5147732;27;44121;-63
2022/03/19 01:03:29;;;;;;;3.00;1.45;;;21.10;43.40;;;;;;5146514;27;43505;-63
2022/03/19 01:05:57;;;;;;;2.40;1.35;;;21.00;43.40;;;;;;5145095;27;44083;-62
2022/03/19 01:08:25;;;;;;;2.45;1.27;;;21.00;43.30;;;;;;5147654;27;43590;-63
2022/03/19 01:10:53;;;;;;;2.95;1.23;;;21.00;43.30;;;;;;5146575;27;44932;-62
2022/03/19 01:13:21;;;;;;;2.92;1.50;;;21.00;43.40;;;;;;5146892;27;43664;-63
2022/03/19 01:15:49;;;;;;;4.43;1.60;;;20.90;43.30;;;;;;5145022;27;43611;-63
2022/03/19 01:18:17;;;;;;;1.90;1.25;;;20.90;43.30;;;;;;5146386;27;43445;-63
2022/03/19 01:20:44;;;;;;;2.03;1.20;;;21.00;43.40;;;;;;5146437;27;45786;-63
2022/03/19 01:23:12;;;;;;;2.80;1.50;;;20.90;43.40;;;;;;5145781;27;43443;-63
2022/03/19 01:25:39;;;;;;;2.13;1.38;;;20.90;43.40;;;;;;5147325;27;43485;-63
2022/03/19 01:28:07;;;;;;;2.25;1.13;;;20.90;43.40;;;;;;5143445;27;43501;-63
2022/03/19 01:30:35;;;;;;;2.45;1.73;;;20.90;43.40;;;;;;5145582;27;44785;-63
2022/03/19 01:33:02;;;;;;;2.20;1.15;;;20.90;43.40;;;;;;5145804;27;43857;-63
2022/03/19 01:35:30;;;;;;;3.53;1.70;;;20.90;43.40;;;;;;5147166;27;43553;-63
2022/03/19 01:37:58;;;;;;;2.67;1.42;;;20.90;43.40;;;;;;5147179;27;43503;-62
2022/03/19 01:40:26;;;;;;;2.85;1.50;;;20.80;43.40;;;;;;5146359;27;44036;-63
2022/03/19 01:42:53;;;;;;;2.85;1.50;;;20.80;43.40;;;;;;5145364;27;43422;-62
2022/03/19 01:45:24;;;;;;;2.65;1.30;;;20.80;43.40;;;;;;5146181;27;43476;-62
2022/03/19 01:47:53;;;;;;;2.95;1.40;;;20.80;43.40;;;;;;5146451;27;43423;-62
2022/03/19 01:50:23;;;;;;;3.25;1.73;;;20.80;43.30;;;;;;5146032;27;44937;-63
2022/03/19 01:52:51;;;;;;;1.85;1.10;;;20.80;43.40;;;;;;5145345;27;43447;-62
2022/03/19 01:55:21;;;;;;;2.47;1.40;;;20.80;43.40;;;;;;5146086;27;43618;-64
2022/03/19 01:57:49;;;;;;;2.83;1.65;;;20.80;43.40;;;;;;5146417;27;43446;-62
2022/03/19 02:00:20;;;;;;;2.53;1.42;;;20.70;43.30;;;;;;5145804;27;43866;-63
2022/03/19 02:02:49;;;;;;;1.73;1.27;;;20.70;43.40;;;;;;5121842;27;43439;-62
2022/03/19 02:05:18;;;;;;;2.72;1.40;;;20.70;43.40;;;;;;5147066;27;43510;-63
2022/03/19 02:07:47;;;;;;;1.75;1.20;;;20.70;43.40;;;;;;5146894;27;43505;-63
2022/03/19 02:10:17;;;;;;;2.10;1.15;;;20.60;43.40;;;;;;5146381;27;44314;-63
2022/03/19 02:12:45;;;;;;;3.08;1.58;;;20.60;43.40;;;;;;5130670;27;43992;-62
2022/03/19 02:15:14;;;;;;;1.80;1.20;;;20.60;43.40;;;;;;5145537;27;43402;-63
2022/03/19 02:17:42;;;;;;;2.55;1.33;;;20.60;43.40;;;;;;5144752;27;43489;-63
2022/03/19 02:20:11;;;;;;;2.90;1.48;;;20.60;43.40;;;;;;5151721;27;44979;-63
2022/03/19 02:22:39;;;;;;;3.60;1.55;;;20.60;43.40;;;;;;5136592;27;43485;-63
2022/03/19 02:27:56;;;;;;;3.67;1.60;;;20.60;43.40;;;;;;5146037;27;43591;-63
2022/03/19 02:30:23;;;;;;;2.28;1.40;;;20.60;43.40;;;;;;5145883;27;43962;-63
2022/03/19 02:32:51;;;;;;;2.88;1.63;;;20.50;43.30;;;;;;5145753;27;43422;-62
2022/03/19 02:35:19;;;;;;;2.10;1.33;;;20.50;44.00;;;;;;5145424;27;43442;-63
2022/03/19 02:37:48;;;;;;;2.15;1.30;;;20.50;43.40;;;;;;5145499;27;43572;-63
2022/03/19 02:40:20;;;;;;;2.40;1.30;;;20.50;43.30;;;;;;5144888;27;44186;-63
2022/03/19 02:42:53;;;;;;;1.98;1.42;;;20.50;43.40;;;;;;5126632;27;43549;-62
2022/03/19 02:45:22;;;;;;;1.63;1.33;;;20.50;43.40;;;;;;5145293;27;43493;-63
2022/03/19 02:47:59;;;;;;;1.95;1.20;;;20.50;43.40;;;;;;5141859;27;43524;-63
2022/03/19 02:50:36;;;;;;;2.15;1.42;;;20.50;43.50;;;;;;5126797;27;45981;-63
2022/03/19 02:53:08;;;;;;;2.25;1.30;;;20.40;43.30;;;;;;5145168;27;43660;-63
2022/03/19 02:55:39;;;;;;;2.88;1.30;;;20.40;43.30;;;;;;5144546;27;43391;-62
2022/03/19 02:58:08;;;;;;;2.10;1.38;;;20.40;43.30;;;;;;5145490;27;44090;-63
2022/03/19 03:00:37;;;;;;;1.77;1.30;;;20.40;43.30;;;;;;5126811;27;43623;-63
2022/03/19 03:03:05;;;;;;;2.22;1.40;;;20.40;43.30;;;;;;5144818;27;43730;-63
2022/03/19 03:05:34;;;;;;;2.33;1.30;;;20.40;43.30;;;;;;5142216;27;43438;-63
2022/03/19 03:08:03;;;;;;;2.67;1.50;;;20.40;43.40;;;;;;5145018;27;43521;-63
2022/03/19 03:10:32;;;;;;;3.03;1.40;;;20.30;43.30;;;;;;5144576;27;44020;-62
2022/03/19 03:12:59;;;;;;;2.10;1.48;;;20.30;43.30;;;;;;5127184;27;43447;-63
2022/03/19 03:15:27;;;;;;;2.33;1.27;;;20.30;43.30;;;;;;5143955;27;43546;-63
2022/03/19 03:17:55;;;;;;;2.13;1.30;;;20.30;43.30;;;;;;5144974;27;43492;-63
2022/03/19 03:20:23;;;;;;;3.33;1.60;;;20.30;43.40;;;;;;5145758;27;44595;-63
2022/03/19 03:22:51;;;;;;;2.85;1.55;;;20.30;43.40;;;;;;5144694;27;43719;-62
2022/03/19 03:25:19;;;;;;;2.83;1.52;;;20.20;43.30;;;;;;5144549;27;43553;-63
2022/03/19 03:27:46;;;;;;;3.08;1.30;;;20.20;43.40;;;;;;5129321;27;43484;-63
2022/03/19 03:30:15;;;;;;;2.13;1.30;;;20.20;43.30;;;;;;5148808;27;43775;-63
2022/03/19 03:32:43;;;;;;;2.05;1.40;;;20.20;43.30;;;;;;5149330;27;43503;-62
2022/03/19 03:35:11;;;;;;;3.38;1.50;;;20.20;43.30;;;;;;5148537;27;43476;-63
2022/03/19 03:37:38;;;;;;;2.65;1.58;;;20.20;43.30;;;;;;5149483;27;43460;-62
2022/03/19 03:40:07;;;;;;;3.15;1.50;;;20.20;43.40;;;;;;5148915;27;44793;-63
2022/03/19 03:42:40;;;;;;;1.83;1.38;;;20.20;43.40;;;;;;5149173;27;43605;-63
2022/03/19 03:45:10;;;;;;;2.67;1.60;;;20.10;43.40;;;;;;5148913;27;43497;-63
2022/03/19 03:47:38;;;;;;;2.30;1.85;;;20.10;43.30;;;;;;5149263;27;43547;-62
2022/03/19 03:50:06;;;;;;;3.33;1.63;;;20.10;43.30;;;;;;5148874;27;43805;-63
2022/03/19 03:52:33;;;;;;;2.25;1.40;;;20.10;43.30;;;;;;5130372;27;43503;-63
2022/03/19 03:55:03;;;;;;;2.03;1.38;;;20.10;43.30;;;;;;5148197;27;43487;-63
2022/03/19 03:57:30;;;;;;;1.77;1.30;;;20.10;43.30;;;;;;5148883;27;43505;-63
2022/03/19 03:59:58;;;;;;;1.80;1.30;;;20.10;43.30;;;;;;5148576;27;43816;-62
2022/03/19 04:02:25;;;;;;;2.40;1.25;;;20.10;43.40;;;;;;5148506;27;43446;-62
2022/03/19 04:04:53;;;;;;;2.92;1.42;;;20.10;43.30;;;;;;5148519;27;43562;-63
2022/03/19 04:07:21;;;;;;;2.60;1.40;;;20.00;43.30;;;;;;5148771;27;43410;-63
2022/03/19 04:09:49;;;;;;;2.85;1.33;;;20.00;43.30;;;;;;5129626;27;45035;-63
2022/03/19 04:12:16;;;;;;;1.88;1.30;;;20.00;43.20;;;;;;5148735;27;43466;-63
2022/03/19 04:14:43;;;;;;;1.67;1.08;;;20.00;43.20;;;;;;5130192;27;43425;-63
2022/03/19 04:17:11;;;;;;;1.92;1.30;;;20.00;43.30;;;;;;5148538;27;43427;-63
2022/03/19 04:19:39;;;;;;;3.58;1.48;;;20.00;43.30;;;;;;5153528;27;43797;-62
2022/03/19 04:22:06;;;;;;;2.47;1.50;;;20.00;43.30;;;;;;5148160;27;43467;-63
2022/03/19 04:24:34;;;;;;;3.58;1.67;;;19.90;43.20;;;;;;5148408;27;43367;-63
2022/03/19 04:27:01;;;;;;;2.78;1.60;;;19.90;43.20;;;;;;5148426;27;43513;-63
2022/03/19 04:29:29;;;;;;;1.48;1.30;;;19.90;43.20;;;;;;5146024;27;44785;-63
2022/03/19 04:31:57;;;;;;;2.03;1.50;;;19.90;43.20;;;;;;5148451;27;44019;-63
2022/03/19 04:34:25;;;;;;;1.88;1.48;;;19.90;43.20;;;;;;5122431;27;43492;-63
2022/03/19 04:36:53;;;;;;;1.80;1.42;;;19.90;43.20;;;;;;5129739;27;43469;-63
2022/03/19 04:39:20;;;;;;;1.67;1.20;;;19.90;43.30;;;;;;5147042;27;45022;-63
2022/03/19 04:41:49;;;;;;;1.98;1.35;;;19.90;43.30;;;;;;5129238;27;45194;-63
2022/03/19 04:44:17;;;;;;;2.35;1.70;;;19.90;43.20;;;;;;5141211;27;43374;-63
2022/03/19 04:46:44;;;;;;;2.60;1.40;;;19.90;43.20;;;;;;5142718;27;43424;-63
2022/03/19 04:49:12;;;;;;;2.60;1.60;;;19.80;43.20;;;;;;5147514;27;44701;-63
2022/03/19 04:51:41;;;;;;;2.03;1.50;;;19.80;43.20;;;;;;5147861;27;43501;-64
2022/03/19 04:54:09;;;;;;;3.00;1.60;;;19.80;43.20;;;;;;5147728;27;43559;-62
2022/03/19 04:56:37;;;;;;;1.80;1.27;;;19.80;43.20;;;;;;5144945;27;43402;-62
2022/03/19 04:59:04;;;;;;;3.75;1.33;;;19.80;43.20;;;;;;5147304;27;43827;-63
2022/03/19 05:01:32;;;;;;;1.98;1.30;;;19.80;43.20;;;;;;5146853;27;45136;-63
2022/03/19 05:04:00;;;;;;;2.15;1.33;;;19.80;43.20;;;;;;5129457;27;43457;-63
2022/03/19 05:06:28;;;;;;;3.00;1.42;;;19.80;43.20;;;;;;5147925;27;43580;-63
2022/03/19 05:11:41;;;;;;;2.53;1.60;;;19.70;43.30;;;;;;5147285;27;43454;-63
2022/03/19 05:14:11;;;;;;;2.28;1.40;;;19.70;43.30;;;;;;5147473;27;44036;-63
2022/03/19 05:16:39;;;;;;;3.13;1.65;;;19.70;43.20;;;;;;5147614;27;44027;-63
2022/03/19 05:19:06;;;;;;;1.75;1.33;;;19.70;43.20;;;;;;5147233;27;44051;-62
2022/03/19 05:21:35;;;;;;;1.92;1.45;;;19.70;43.30;;;;;;5146992;27;43606;-62
2022/03/19 05:24:02;;;;;;;2.03;1.55;;;19.70;43.30;;;;;;5147219;27;43464;-63
2022/03/19 05:26:30;;;;;;;2.50;1.70;;;19.70;43.30;;;;;;5147083;27;43434;-63
2022/03/19 05:28:57;;;;;;;1.70;1.42;;;19.70;43.30;;;;;;5146975;27;44652;-63
2022/03/19 05:31:35;;;;;;;2.83;1.40;;;19.60;43.30;;;;;;5142539;27;43666;-62
2022/03/19 05:36:49;;;;;;;3.47;1.45;;;19.60;43.50;;;;;;5146945;27;43588;-63
2022/03/19 05:39:16;;;;;;;3.20;1.52;;;19.50;43.40;;;;;;5146818;27;43776;-63
2022/03/19 05:41:44;;;;;;;4.43;1.77;;;19.60;43.50;;;;;;5146360;27;43541;-62
2022/03/19 05:44:12;;;;;;;4.45;1.63;;;19.60;43.50;;;;;;5144642;27;43458;-62
2022/03/19 05:46:39;;;;;;;2.78;1.55;;;19.50;43.50;;;;;;5146932;27;43466;-63
2022/03/19 05:49:06;;;;;;;2.53;1.52;;;19.50;43.50;;;;;;5146767;27;44681;-63
2022/03/19 05:51:34;;;;;;;2.50;1.70;;;19.50;43.50;;;;;;5145775;27;43485;-63
2022/03/19 05:54:02;;;;;;;1.83;1.48;;;19.50;44.10;;;;;;5146625;27;43502;-63
2022/03/19 05:56:31;;;;;;;2.70;1.90;;;19.50;43.50;;;;;;5129288;27;43415;-62
2022/03/19 05:58:58;;;;;;;3.10;1.58;;;19.50;43.50;;;;;;5146452;27;44018;-63
2022/03/19 06:01:26;;;;;;;3.97;1.88;;;19.50;43.40;;;;;;5125054;27;43466;-63
2022/03/19 06:03:58;;;;;;;2.40;1.67;;;19.50;43.50;;;;;;5126932;27;43533;-63
2022/03/19 06:06:27;;;;;;;2.83;1.70;;;19.50;43.60;;;;;;5146703;27;43585;-63
2022/03/19 06:08:54;;;;;;;2.75;1.60;;;19.50;43.60;;;;;;5126715;27;44205;-62
2022/03/19 06:11:22;;;;;;;3.13;1.65;;;19.50;43.60;;;;;;5146528;27;43429;-63
2022/03/19 06:13:50;;;;;;;3.30;1.65;;;19.40;43.50;;;;;;5130456;27;43571;-63
2022/03/19 06:16:18;;;;;;;2.25;1.50;;;19.50;43.60;;;;;;5125263;27;43473;-63
2022/03/19 06:18:50;;;;;;;3.78;1.60;;;19.40;43.50;;;;;;5127420;27;44553;-62
2022/03/19 06:21:19;;;;;;;3.75;1.52;;;19.50;43.60;;;;;;5142995;27;43533;-63
2022/03/19 06:23:47;;;;;;;3.08;1.80;;;19.40;43.50;;;;;;5146022;27;43449;-63
2022/03/19 06:26:14;;;;;;;1.92;1.52;;;19.50;43.70;;;;;;5126027;27;43541;-63
2022/03/19 06:28:42;;;;;;;2.40;1.50;;;19.40;43.70;;;;;;5146230;27;43804;-63
2022/03/19 06:31:10;;;;;;;2.70;1.67;;;19.40;43.60;;;;;;5145344;27;43449;-63
2022/03/19 06:33:42;;;;;;;2.50;1.80;;;19.40;43.70;;;;;;5146219;27;43469;-62
2022/03/19 06:39:00;;;;;;;2.63;1.35;;;19.40;43.60;;;;;;5110548;27;45115;-62
2022/03/19 06:41:27;;;;;;;3.20;1.88;;;19.50;43.70;;;;;;5146178;27;43423;-63
2022/03/19 06:43:55;;;;;;;3.05;1.50;;;19.50;43.70;;;;;;5145864;27;43447;-63
2022/03/19 06:46:23;;;;;;;2.75;1.58;;;19.50;43.80;;;;;;5146212;27;43441;-64
2022/03/19 06:48:51;;;;;;;3.20;1.50;;;19.50;43.80;;;;;;5145721;27;43785;-63
2022/03/19 06:51:20;;;;;;;2.83;1.60;;;19.40;43.80;;;;;;5146006;27;43475;-64
2022/03/19 06:53:48;;;;;;;3.15;1.60;;;19.40;43.80;;;;;;5145815;27;43520;-63
2022/03/19 06:56:17;;;;;;;2.90;1.55;;;19.50;43.80;;;;;;5145686;27;43450;-64
2022/03/19 06:58:45;;;;;;;2.60;1.50;;;19.50;43.80;;;;;;5126378;27;45078;-63
2022/03/19 07:01:16;;;;;;;2.88;1.55;;;19.50;43.80;;;;;;5145083;27;44790;-63
2022/03/19 07:03:45;;;;;;;;;;;19.50;43.80;;;;;;5146234;27;43485;-63
2022/03/19 07:06:13;;;;;;;2.13;1.48;;;19.60;43.80;;;;;;5139423;27;43948;-64
2022/03/19 07:09:00;;;;;;;2.45;1.48;;;19.50;43.80;;;;;;5145516;27;43841;-64
2022/03/19 07:11:28;;;;;;;1.67;1.42;;;19.60;43.90;;;;;;5122877;27;45115;-64
2022/03/19 07:13:57;;;;;;;2.63;1.30;;;19.60;43.90;;;;;;5120554;27;43410;-63
2022/03/19 07:16:24;;;;;;;2.92;1.63;;;19.60;43.80;;;;;;5121521;27;43422;-61
2022/03/19 07:18:51;;;;;;;2.15;1.65;;;19.60;43.80;;;;;;5124415;27;44092;-61
2022/03/19 07:21:19;;;;;;;3.28;2.30;;;19.60;43.90;;;;;;5124769;27;43410;-63
2022/03/19 07:23:50;;;;;;;3.08;2.10;;;19.60;43.90;;;;;;5124766;27;43460;-63
2022/03/19 07:26:20;;;;;;;3.45;2.10;;;19.70;43.90;;;;;;5124762;27;43437;-63
2022/03/19 07:28:47;;;;;;;2.72;2.13;;;19.80;43.90;;;;;;5124446;27;44711;-63
2022/03/19 07:31:15;;;;;;;2.75;2.08;;;19.90;43.80;;;;;;5123251;27;43562;-62
2022/03/19 07:33:47;;;;;;;3.53;2.00;;;20.10;43.60;;;;;;5113451;27;43412;-63
2022/03/19 07:36:14;;;;;;;3.05;1.90;;;20.20;43.50;;;;;;5121128;27;43588;-63
2022/03/19 07:38:42;;;;;;;3.35;2.13;;;20.40;43.30;;;;;;5124216;27;44260;-63
2022/03/19 07:43:57;;;;;;;3.08;1.85;;;20.70;43.60;;;;;;5124392;27;43466;-63
2022/03/19 07:46:27;;;;;;;2.45;1.73;;;20.80;42.90;;;;;;5124620;27;43524;-63
2022/03/19 07:48:55;;;;;;;4.05;2.08;;;21.00;42.60;;;;;;5124123;27;43807;-63
2022/03/19 07:51:22;;;;;;;3.28;1.90;;;21.20;42.40;;;;;;5124540;27;43485;-63
2022/03/19 07:53:50;;;;;;;3.33;2.22;;;21.40;42.20;;;;;;5124668;27;43464;-63
2022/03/19 07:56:17;;;;;;;3.33;1.90;;;21.50;41.90;;;;;;5124612;27;43446;-62
2022/03/19 07:58:50;;;;;;;2.33;1.90;;;21.60;41.50;;;;;;5123899;27;43841;-62
2022/03/19 08:01:19;;;;;;;4.30;2.28;;;21.70;41.40;;;;;;5117838;27;43664;-64
2022/03/19 08:03:48;;;;;;;4.97;2.25;;;21.80;41.40;;;;;;5123533;27;43442;-64
2022/03/19 08:06:16;;;;;;;2.83;1.70;;;22.00;41.60;;;;;;5121909;27;43467;-63
2022/03/19 08:08:43;;;;;;;3.42;2.10;;;22.10;41.40;;;;;;5122704;27;43806;-62
2022/03/19 08:11:11;;;;;;;3.50;2.25;;;22.20;41.30;;;;;;5108191;27;43420;-63
2022/03/19 08:13:39;;;;;;;2.88;1.90;;;22.30;41.00;;;;;;5123573;27;43805;-64
2022/03/19 08:16:08;;;;;;;3.88;1.75;;;22.40;41.20;;;;;;5126841;27;43465;-63
2022/03/19 08:18:36;;;;;;;2.28;1.70;;;22.50;40.80;;;;;;5126491;27;44709;-63
2022/03/19 08:21:03;;;;;;;3.53;1.90;;;22.60;40.90;;;;;;5126117;27;43460;-63
2022/03/19 08:23:32;;;;;;;2.83;1.88;;;22.70;41.10;;;;;;5126684;27;43451;-64
2022/03/19 08:25:59;;;;;;;4.35;1.90;;;22.80;40.70;;;;;;5126905;27;43494;-64
2022/03/19 08:28:27;;;;;;;3.63;1.70;;;22.90;40.70;;;;;;5125887;27;44229;-64
2022/03/19 08:30:55;;;;;;;2.53;1.85;;;23.00;40.70;;;;;;5125801;27;43450;-65
2022/03/19 08:33:22;;;;;;;3.45;1.80;;;23.10;40.60;;;;;;5124150;27;43472;-64
2022/03/19 08:35:50;;;;;;;2.35;1.70;;;23.20;40.40;;;;;;5122755;27;43461;-64
2022/03/19 08:41:03;;;;;;;3.58;1.90;;;23.30;40.20;;;;;;5123692;27;43911;-64
2022/03/19 08:43:35;;;;;;;2.83;1.70;;;23.30;40.00;;;;;;5124433;27;43432;-64
2022/03/19 08:46:03;;;;;;;3.03;1.80;;;23.30;40.10;;;;;;5124435;27;43451;-65
2022/03/19 08:48:30;;;;;;;5.40;1.95;;;23.40;40.20;;;;;;5124523;27;44735;-63
2022/03/19 08:51:39;;;;;;;3.10;1.70;;;23.40;39.90;;;;;;5125570;27;43498;-63
2022/03/19 08:53:49;;;;;;;3.47;1.80;;;23.50;39.80;;;;;;5123424;27;43378;-63
2022/03/19 08:56:17;;;;;;;3.55;1.80;;;23.50;39.70;;;;;;5126223;27;43557;-64
2022/03/19 08:58:44;;;;;;;3.72;1.75;;;23.50;39.80;;;;;;5122706;27;44054;-63
2022/03/19 09:01:12;;;;;;;2.38;1.63;;;23.60;39.80;;;;;;5125797;27;43553;-65
2022/03/19 09:03:40;;;;;;;3.75;1.88;;;23.60;39.80;;;;;;5125886;27;43485;-61
2022/03/19 09:06:10;;;;;;;4.90;1.90;;;23.70;39.80;;;;;;5125798;27;43539;-62
2022/03/19 09:08:37;;;;;;;4.35;1.73;;;23.70;39.80;;;;;;5125984;27;43779;-63
2022/03/19 09:11:05;;;;;;;3.67;1.73;;;23.80;40.00;;;;;;5134379;27;43573;-61
2022/03/19 09:13:32;;;;;;;6.72;2.17;;;23.90;39.70;;;;;;5145024;27;43580;-62
2022/03/19 09:16:00;;;;;;;6.25;2.15;;;23.90;39.70;;;;;;5144623;27;43992;-65
2022/03/19 09:18:27;;;;;;;5.40;1.90;;;24.00;39.70;;;;;;5127649;27;43924;-64
2022/03/19 09:20:55;;;;;;;7.22;1.70;;;24.10;39.80;;;;;;5146052;27;43507;-64
2022/03/19 09:23:23;;;;;;;4.13;1.70;;;24.10;39.80;;;;;;5146903;27;43493;-64
2022/03/19 09:25:51;;;;;;;4.18;1.65;;;24.20;39.70;;;;;;5094189;27;43656;-64
2022/03/19 09:28:18;;;;;;;3.78;1.70;;;24.30;39.60;;;;;;5146245;27;44000;-64
2022/03/19 09:30:46;;;;;;;4.90;2.00;;;24.40;39.60;;;;;;5146107;27;43516;-63
2022/03/19 09:33:14;;;;;;;5.28;1.70;;;24.40;39.50;;;;;;5143016;27;43527;-64
2022/03/19 09:35:46;;;;;;;4.28;1.70;;;24.50;39.40;;;;;;5141991;27;43502;-64
2022/03/19 09:38:15;;;;;;;4.10;1.58;;;24.60;39.40;;;;;;5146225;27;44051;-63
2022/03/19 09:40:43;;;;;;;4.95;1.98;;;24.60;39.40;;;;;;5127349;27;43383;-62
2022/03/19 09:43:10;;;;;;;3.65;2.08;;;24.70;39.30;;;;;;5145226;27;43502;-64
2022/03/19 09:45:38;;;;;;;5.63;2.25;;;24.70;38.90;;;;;;5144928;27;43629;-63
2022/03/19 09:48:06;;;;;;;2.90;1.52;;;24.70;38.90;;;;;;5143800;27;44001;-64
2022/03/19 09:50:35;;;;;;;4.22;1.63;;;24.70;38.80;;;;;;5143530;27;43424;-63
2022/03/19 09:53:04;;;;;;;4.28;1.80;;;24.70;38.80;;;;;;5124561;27;43463;-63
2022/03/19 09:55:34;;;;;;;3.67;1.67;;;24.80;38.70;;;;;;5142596;27;43523;-63
2022/03/19 09:58:02;;;;;;;3.38;1.67;;;24.80;38.70;;;;;;5145594;27;44720;-64
2022/03/19 10:00:30;;;;;;;5.30;1.88;;;24.80;38.70;;;;;;5145719;27;43985;-63
2022/03/19 10:03:02;;;;;;;5.18;1.85;;;24.80;38.70;;;;;;5122681;27;43555;-64
2022/03/19 10:11:35;;;;;;;7.53;2.40;;;24.80;38.60;;;;;;5058725;28;43698;-63
2022/03/19 10:14:06;;;;;;;6.05;1.88;;;24.80;38.60;;;;;;5128241;27;43583;-64
2022/03/19 10:16:36;;;;;;;5.57;1.80;;;24.70;38.60;;;;;;5145909;27;43558;-63
2022/03/19 10:19:06;;;;;;;6.10;2.13;;;24.70;38.60;;;;;;5145963;27;45004;-63
2022/03/19 10:21:41;;;;;;;7.03;1.85;;;24.70;38.70;;;;;;5145100;27;43432;-63
2022/03/19 10:24:29;;;;;;;6.05;1.50;;;24.70;38.70;;;;;;5143327;27;44023;-64
2022/03/19 10:26:57;;;;;;;3.97;1.65;;;24.60;38.60;;;;;;5145141;27;44006;-63
2022/03/19 10:29:33;;;;;;;3.83;1.67;;;24.60;38.70;;;;;;5144859;27;43941;-64
2022/03/19 10:32:07;;;;;;;5.15;1.70;;;24.60;38.80;;;;;;5127433;27;44729;-64
2022/03/19 10:34:40;;;;;;;4.55;1.85;;;24.50;38.80;;;;;;5145021;27;43421;-64
2022/03/19 10:37:08;;;;;;;6.30;1.95;;;24.50;38.80;;;;;;5142504;27;43480;-63
2022/03/19 10:39:35;;;;;;;5.55;1.80;;;24.50;38.90;;;;;;5145005;27;45029;-63
2022/03/19 10:42:14;;;;;;;4.13;1.77;;;24.50;39.00;;;;;;5144768;27;43657;-63
2022/03/19 10:44:41;;;;;;;5.28;2.00;;;24.50;39.10;;;;;;5144657;27;43544;-62
2022/03/19 10:47:09;;;;;;;4.32;2.13;;;24.50;39.20;;;;;;5145647;27;43465;-64
2022/03/19 10:49:42;;;;;;;4.25;2.00;;;24.40;39.10;;;;;;5140777;27;44969;-63
2022/03/19 10:52:15;;;;;;;4.40;2.17;;;24.40;39.20;;;;;;5145203;27;43433;-63
2022/03/19 10:54:43;;;;;;;4.70;2.30;;;24.40;39.30;;;;;;5144840;27;43487;-63
2022/03/19 10:57:12;;;;;;;6.47;2.38;;;24.40;39.30;;;;;;5141247;27;43383;-64
2022/03/19 10:59:40;;;;;;;7.63;2.42;;;24.30;39.20;;;;;;5127285;27;44053;-64
2022/03/19 11:02:09;;;;;;;3.67;2.28;;;24.30;39.40;;;;;;5144506;27;43689;-63
2022/03/19 11:04:38;;;;;;;5.35;2.50;;;24.40;39.50;;;;;;5125383;27;43523;-64
2022/03/19 11:07:08;;;;;;;5.03;2.38;;;24.40;39.60;;;;;;5144999;27;43532;-64
2022/03/19 11:09:38;;;;;;;5.88;2.58;;;24.40;39.60;;;;;;5143987;27;43811;-65
2022/03/19 11:12:09;;;;;;;5.90;2.45;;;24.30;39.40;;;;;;5124570;27;43699;-63
2022/03/19 11:14:41;;;;;;;5.28;2.50;;;24.30;39.50;;;;;;5139447;27;43460;-63
2022/03/19 11:17:23;;;;;;;5.20;2.70;;;24.30;39.60;;;;;;5144966;27;43552;-63
2022/03/19 11:19:56;;;;;;;5.43;2.47;;;24.30;39.70;;;;;;5140211;27;44076;-64
2022/03/19 11:22:25;;;;;;;6.28;2.58;;;24.30;39.70;;;;;;5126276;27;43451;-63
2022/03/19 11:24:58;;;;;;;4.72;2.30;;;24.30;39.80;;;;;;5125565;27;43514;-64
2022/03/19 11:27:30;;;;;;;5.45;2.50;;;24.30;39.80;;;;;;5102242;27;43518;-64
2022/03/19 11:29:59;;;;;;;4.40;2.13;;;24.40;40.00;;;;;;5143901;27;43921;-64
2022/03/19 11:32:27;;;;;;;4.25;2.40;;;24.40;39.90;;;;;;5144179;27;43524;-63
2022/03/19 11:34:59;;;;;;;4.65;2.50;;;24.40;40.00;;;;;;5143567;27;43476;-64
2022/03/19 11:38:00;;;;;;;3.75;2.33;;;24.40;40.00;;;;;;5143809;27;43450;-63
2022/03/19 11:40:32;;;;;;;3.85;2.15;;;24.40;40.00;;;;;;5141853;27;43914;-65
2022/03/19 11:43:18;;;;;;;6.07;2.30;;;24.40;40.10;;;;;;5123741;27;43535;-64
2022/03/19 11:46:12;;;;;;;4.65;2.30;;;24.40;40.00;;;;;;5123681;27;43515;-64
2022/03/19 11:48:43;;;;;;;4.20;2.10;;;24.40;39.80;;;;;;5144675;27;43542;-63
2022/03/19 11:51:25;;;;;;;5.75;2.13;;;24.30;40.00;;;;;;5147142;27;43892;-63
2022/03/19 11:53:56;;;;;;;3.40;1.80;;;24.30;40.20;;;;;;5128416;27;43473;-63
2022/03/19 11:56:26;;;;;;;5.10;2.15;;;24.30;40.10;;;;;;5130164;27;43546;-62
2022/03/19 11:58:54;;;;;;;3.83;2.10;;;24.30;40.20;;;;;;5143916;27;43981;-63
2022/03/19 12:02:05;;;;;;;4.50;2.25;;;24.30;40.10;;;;;;5143360;27;43622;-63
2022/03/19 12:04:44;;;;;;;;;;;24.30;40.10;;;;;;5145187;27;43439;-64
2022/03/19 12:07:32;;;;;;;4.03;1.98;;;24.30;40.20;;;;;;5145889;27;43440;-63
2022/03/19 12:10:00;;;;;;;3.95;1.95;;;24.30;40.30;;;;;;5146331;27;43620;-63
2022/03/19 12:12:31;;;;;;;3.67;1.88;;;24.30;40.30;;;;;;5147107;27;44929;-63
2022/03/19 12:14:59;;;;;;;3.50;1.80;;;24.30;40.30;;;;;;5119679;27;43514;-64
2022/03/19 12:17:26;;;;;;;2.95;1.45;;;24.30;40.30;;;;;;5146653;27;44041;-64
2022/03/19 12:20:01;;;;;;;3.30;1.80;;;24.30;40.30;;;;;;5146730;27;43514;-62
2022/03/19 12:22:35;;;;;;;2.72;1.90;;;24.30;40.20;;;;;;5146778;27;44037;-62
2022/03/19 12:25:09;;;;;;;2.95;1.45;;;24.30;40.30;;;;;;5146798;27;43562;-62
2022/03/19 12:27:38;;;;;;;4.57;1.70;;;24.30;40.20;;;;;;5129657;27;43493;-62
2022/03/19 12:30:09;;;;;;;4.17;1.93;;;24.40;40.30;;;;;;5145080;27;43588;-64
2022/03/19 12:32:54;;;;;;;3.33;1.60;;;24.30;40.20;;;;;;5127420;27;44968;-63
2022/03/19 12:35:23;;;;;;;4.53;1.67;;;24.40;40.20;;;;;;5146367;27;44275;-64
2022/03/19 12:37:57;;;;;;;3.47;1.50;;;24.40;40.30;;;;;;5147302;27;44078;-62
2022/03/19 12:40:28;;;;;;;4.15;2.08;;;24.40;40.30;;;;;;5146775;27;43473;-63
2022/03/19 12:42:57;;;;;;;3.42;1.65;;;24.40;40.30;;;;;;5144884;27;43642;-62
2022/03/19 12:45:41;;;;;;;4.03;1.80;;;24.40;40.30;;;;;;5128138;27;43593;-63
2022/03/19 12:48:10;;;;;;;2.45;1.52;;;24.40;40.30;;;;;;5146599;27;44174;-65
2022/03/19 12:50:39;;;;;;;4.63;1.80;;;24.40;40.30;;;;;;5146266;27;43641;-63
2022/03/19 12:53:06;;;;;;;2.95;1.58;;;24.40;40.40;;;;;;5130957;27;44225;-63
2022/03/19 12:55:35;;;;;;;4.13;1.80;;;24.40;40.40;;;;;;5145114;27;43549;-64
2022/03/19 12:58:02;;;;;;;3.75;1.50;;;24.40;40.40;;;;;;5144511;27;43510;-64
2022/03/19 13:00:30;;;;;;;3.10;1.63;;;24.40;40.40;;;;;;5107730;27;43648;-64
2022/03/19 13:02:58;;;;;;;2.95;1.38;;;24.40;40.40;;;;;;5141173;27;44078;-64
2022/03/19 13:05:26;;;;;;;4.00;1.65;;;24.40;40.40;;;;;;5143163;27;43569;-63
2022/03/19 13:08:07;;;;;;;2.90;1.58;;;24.50;40.40;;;;;;5143326;27;43468;-64
2022/03/19 13:10:49;;;;;;;2.25;1.40;;;24.50;40.40;;;;;;5146207;27;43507;-65
2022/03/19 13:13:18;;;;;;;2.05;1.27;;;24.50;40.50;;;;;;5146421;27;43808;-62
2022/03/19 13:15:53;;;;;;;3.22;1.40;;;24.40;40.40;;;;;;5139891;27;43576;-63
2022/03/19 13:18:29;;;;;;;3.35;1.85;;;24.50;40.50;;;;;;5157753;27;43490;-62
2022/03/19 13:21:08;;;;;;;2.10;1.35;;;24.40;40.40;;;;;;5144785;27;44084;-64
2022/03/19 13:23:38;;;;;;;4.85;1.58;;;24.50;40.40;;;;;;5143716;27;45265;-64